createdAt,value
2022-10-13T00:02:32.698Z,102375.61
2022-10-13T00:06:31.820Z,102371.37
2022-10-13T00:10:30.117Z,102364.89
2022-10-13T00:14:28.306Z,102366.50
2022-10-13T00:18:41.189Z,102365.16
2022-10-13T00:22:39.268Z,102370.11
2022-10-13T00:26:37.232Z,102365.96
2022-10-13T00:30:38.764Z,102371.30
2022-10-13T00:34:38.348Z,102368.86
2022-10-13T00:38:51.603Z,102368.20
2022-10-13T00:42:57.234Z,102368.59
2022-10-13T00:46:57.124Z,102362.85
2022-10-13T00:50:58.639Z,102361.05
2022-10-13T00:54:57.186Z,102362.30
2022-10-13T00:59:22.822Z,102359.29
2022-10-13T01:03:36.490Z,102352.61
2022-10-13T01:07:35.959Z,102351.73
2022-10-13T01:12:04.932Z,102357.57
2022-10-13T01:16:26.103Z,102350.86
2022-10-13T01:21:09.353Z,102348.35
2022-10-13T01:25:38.170Z,102341.61
2022-10-13T01:30:09.941Z,102342.70
2022-10-13T01:34:31.999Z,102333.45
2022-10-13T01:39:12.500Z,102330.16
2022-10-13T01:43:47.925Z,102323.19
2022-10-13T01:47:50.528Z,102323.41
2022-10-13T01:52:07.332Z,102319.23
2022-10-13T01:56:19.482Z,102313.48
2022-10-13T02:00:21.401Z,102306.36
2022-10-13T02:13:01.285Z,102299.39
2022-10-13T02:17:03.623Z,102298.20
2022-10-13T02:21:16.921Z,102298.21
2022-10-13T02:25:30.596Z,102296.11
2022-10-13T02:29:30.401Z,102297.17
2022-10-13T02:33:29.244Z,102292.78
2022-10-13T02:37:28.099Z,102293.84
2022-10-13T02:41:26.946Z,102295.45
2022-10-13T02:45:25.318Z,102291.06
2022-10-13T02:49:39.644Z,102290.52
2022-10-13T02:53:51.464Z,102289.18
2022-10-13T02:57:49.664Z,102287.25
2022-10-13T03:01:47.944Z,102282.86
2022-10-13T03:06:00.339Z,102282.36
2022-10-13T03:10:32.840Z,102276.56
2022-10-13T03:13:51.864Z,102278.36
2022-10-13T03:17:51.021Z,102271.54
2022-10-13T03:26:30.921Z,102267.03
2022-10-13T03:30:29.729Z,102264.09
2022-10-13T03:34:27.959Z,102259.02
2022-10-13T03:38:27.759Z,102255.50
2022-10-13T03:42:26.345Z,102250.98
2022-10-13T03:46:28.346Z,102249.41
2022-10-13T03:50:41.005Z,102248.77
2022-10-13T03:54:53.145Z,102246.52
2022-10-13T03:59:05.184Z,102250.19
2022-10-13T04:03:17.274Z,102254.17
2022-10-13T04:07:15.526Z,102252.27
2022-10-13T04:11:15.894Z,102256.03
2022-10-13T04:15:15.169Z,102253.18
2022-10-13T04:19:15.385Z,102251.70
2022-10-13T04:23:27.960Z,102245.66
2022-10-13T04:27:28.799Z,102246.17
2022-10-13T04:31:04.683Z,102244.27
2022-10-13T04:35:16.620Z,102238.98
2022-10-13T04:39:15.001Z,102234.59
2022-10-13T04:43:13.005Z,102230.02
2022-10-13T04:47:11.485Z,102228.66
2022-10-13T04:51:25.848Z,102230.05
2022-10-13T04:55:24.074Z,102229.48
2022-10-13T04:59:36.230Z,102232.13
2022-10-13T05:03:35.856Z,102237.95
2022-10-13T05:07:34.879Z,102234.10
2022-10-13T05:11:34.197Z,102228.30
2022-10-13T05:15:46.846Z,102224.98
2022-10-13T05:19:45.769Z,102227.04
2022-10-13T05:23:45.832Z,102223.49
2022-10-13T05:27:46.786Z,102222.78
2022-10-13T05:31:45.548Z,102218.70
2022-10-13T05:35:43.962Z,102215.20
2022-10-13T05:39:42.249Z,102214.56
2022-10-13T05:43:42.481Z,102212.47
2022-10-13T05:47:41.549Z,102208.43
2022-10-13T05:52:01.801Z,102204.79
2022-10-13T05:56:23.468Z,102208.90
2022-10-13T06:00:35.792Z,102208.90
2022-10-13T06:04:50.852Z,102208.10
2022-10-13T06:08:52.129Z,102211.17
2022-10-13T06:12:51.092Z,102210.40
2022-10-13T06:16:50.500Z,102207.36
2022-10-13T06:20:49.358Z,102198.98
2022-10-13T06:24:49.263Z,102195.81
2022-10-13T06:28:51.834Z,102189.66
2022-10-13T06:32:56.768Z,102189.73
2022-10-13T06:36:54.980Z,102180.52
2022-10-13T06:40:53.064Z,102183.54
2022-10-13T06:44:59.201Z,102182.70
2022-10-13T06:48:30.209Z,102186.40
2022-10-13T06:52:49.399Z,102184.70
2022-10-13T06:56:19.950Z,102178.72
2022-10-13T07:00:18.644Z,102174.16
2022-10-13T07:04:18.539Z,102172.42
2022-10-13T07:08:17.315Z,102172.55
2022-10-13T07:12:29.651Z,102169.80
2022-10-13T07:16:28.152Z,102167.09
2022-10-13T07:20:26.737Z,102166.14
2022-10-13T07:24:38.878Z,102165.89
2022-10-13T07:28:37.889Z,102163.72
2022-10-13T07:32:49.940Z,102163.16
2022-10-13T07:37:01.827Z,102153.61
2022-10-13T07:41:15.869Z,102149.70
2022-10-13T07:45:28.165Z,102144.77
2022-10-13T07:49:26.852Z,102139.52
2022-10-13T07:53:25.581Z,102139.95
2022-10-13T07:57:27.228Z,102146.76
2022-10-13T08:01:25.518Z,102136.43
2022-10-13T08:05:24.271Z,102133.88
2022-10-13T08:13:37.772Z,102119.54
2022-10-13T08:17:58.732Z,102116.54
2022-10-13T08:22:12.298Z,102115.02
2022-10-13T08:26:27.490Z,102110.64
2022-10-13T08:30:26.710Z,102115.14
2022-10-13T08:34:38.923Z,102111.54
2022-10-13T08:38:37.391Z,102117.79
2022-10-13T08:42:36.171Z,102118.85
2022-10-13T08:47:00.275Z,102118.98
2022-10-13T08:51:03.569Z,102118.92
2022-10-13T08:55:01.966Z,102120.70
2022-10-13T08:59:04.584Z,102120.15
2022-10-13T09:03:20.320Z,102112.73
2022-10-13T09:07:28.821Z,102111.28
2022-10-13T09:11:36.649Z,102111.94
2022-10-13T09:15:10.255Z,102106.38
2022-10-13T09:19:25.677Z,102099.73
2022-10-13T09:23:41.023Z,102092.61
2022-10-13T09:27:59.608Z,102090.99
2022-10-13T09:32:26.280Z,102090.30
2022-10-13T09:36:25.029Z,102080.39
2022-10-13T09:40:24.004Z,102082.66
2022-10-13T09:44:36.206Z,102073.11
2022-10-13T09:48:37.604Z,102070.92
2022-10-13T09:52:36.498Z,102070.13
2022-10-13T09:56:54.256Z,102064.82
2022-10-13T10:00:54.831Z,102067.48
2022-10-13T10:04:54.510Z,102060.06
2022-10-13T10:09:05.032Z,102049.36
2022-10-13T10:13:04.709Z,102037.40
2022-10-13T10:17:41.971Z,102031.16
2022-10-13T10:22:06.504Z,102019.54
2022-10-13T10:26:19.371Z,102019.33
2022-10-13T10:30:21.921Z,102011.33
2022-10-13T10:40:02.646Z,101999.65
2022-10-13T10:44:03.435Z,101990.48
2022-10-13T10:48:12.722Z,101990.96
2022-10-13T10:52:21.366Z,101988.17
2022-10-13T10:56:38.910Z,101990.87
2022-10-13T11:00:46.899Z,101987.98
2022-10-13T11:04:48.586Z,101987.45
2022-10-13T11:08:49.449Z,101980.97
2022-10-13T11:13:17.683Z,101977.88
2022-10-13T11:17:39.866Z,101973.02
2022-10-13T11:21:56.926Z,101960.56
2022-10-13T11:26:34.090Z,101959.90
2022-10-13T11:30:50.690Z,101957.44
2022-10-13T11:35:00.180Z,101949.55
2022-10-13T11:39:28.431Z,101952.41
2022-10-13T11:43:56.515Z,101944.23
2022-10-13T11:48:51.842Z,101941.08
2022-10-13T11:53:20.815Z,101928.24
2022-10-13T11:57:26.382Z,101924.55
2022-10-13T12:01:25.076Z,101918.05
2022-10-13T12:05:26.409Z,101919.66
2022-10-13T12:09:25.118Z,101905.73
2022-10-13T12:17:44.870Z,101901.01
2022-10-13T12:22:01.129Z,101888.51
2022-10-13T12:26:23.243Z,101884.12
2022-10-13T12:30:31.309Z,101880.77
2022-10-13T12:34:33.476Z,101875.84
2022-10-13T12:38:32.409Z,101870.01
2022-10-13T12:42:36.502Z,101867.70
2022-10-13T12:46:46.795Z,101860.30
2022-10-13T12:50:45.573Z,101856.77
2022-10-13T12:54:59.655Z,101856.07
2022-10-13T12:59:00.730Z,101851.48
2022-10-13T13:02:36.124Z,101853.96
2022-10-13T13:06:37.655Z,101843.39
2022-10-13T13:10:36.349Z,101846.21
2022-10-13T13:14:49.839Z,101847.45
2022-10-13T13:18:50.166Z,101837.21
2022-10-13T13:22:51.073Z,101830.85
2022-10-13T13:26:49.739Z,101829.80
2022-10-13T13:31:02.406Z,101826.80
2022-10-13T13:35:01.111Z,101826.27
2022-10-13T13:38:59.769Z,101829.80
2022-10-13T13:42:58.318Z,101821.67
2022-10-13T13:47:02.536Z,101819.91
2022-10-13T13:51:16.286Z,101813.91
2022-10-13T13:55:16.313Z,101810.74
2022-10-13T13:59:16.771Z,101812.84
2022-10-13T14:03:19.222Z,101814.41
2022-10-13T14:07:18.648Z,101808.05
2022-10-13T14:11:17.746Z,101802.05
2022-10-13T14:15:23.397Z,101802.38
2022-10-13T14:19:24.990Z,101799.92
2022-10-13T14:23:23.595Z,101795.16
2022-10-13T14:27:23.022Z,101792.15
2022-10-13T14:31:21.486Z,101788.63
2022-10-13T14:35:20.879Z,101785.77
2022-10-13T14:39:20.670Z,101780.48
2022-10-13T14:43:33.137Z,101783.59
2022-10-13T14:47:31.440Z,101777.91
2022-10-13T14:51:30.235Z,101781.07
2022-10-13T14:55:28.543Z,101786.34
2022-10-13T14:59:27.166Z,101781.95
2022-10-13T15:03:27.932Z,101781.60
2022-10-13T15:07:26.661Z,101779.48
2022-10-13T15:11:26.623Z,101775.09
2022-10-13T15:15:24.842Z,101778.44
2022-10-13T15:19:37.875Z,101776.83
2022-10-13T15:23:37.912Z,101778.06
2022-10-13T15:27:43.024Z,101777.52
2022-10-13T15:32:09.177Z,101775.91
2022-10-13T15:36:08.291Z,101776.07
2022-10-13T15:40:11.820Z,101773.95
2022-10-13T15:44:09.861Z,101768.66
2022-10-13T15:48:23.057Z,101777.29
2022-10-13T15:52:40.523Z,101773.05
2022-10-13T15:56:39.679Z,101779.58
2022-10-13T16:00:40.013Z,101779.20
2022-10-13T16:04:52.261Z,101776.55
2022-10-13T16:09:04.339Z,101777.96
2022-10-13T16:13:03.519Z,101780.77
2022-10-13T16:17:01.833Z,101779.70
2022-10-13T16:21:00.170Z,101777.23
2022-10-13T16:25:20.183Z,101776.00
2022-10-13T16:29:20.614Z,101779.34
2022-10-13T16:33:19.019Z,101775.63
2022-10-13T16:37:18.160Z,101773.15
2022-10-13T16:41:18.692Z,101768.73
2022-10-13T16:45:17.194Z,101769.44
2022-10-13T16:49:16.606Z,101764.31
2022-10-13T16:53:14.640Z,101763.23
2022-10-13T16:57:12.907Z,101763.92
2022-10-13T17:01:12.536Z,101761.80
2022-10-13T17:05:11.210Z,101760.05
2022-10-13T17:09:10.781Z,101756.00
2022-10-13T17:13:25.562Z,101754.56
2022-10-13T17:17:24.980Z,101754.55
2022-10-13T17:21:22.919Z,101749.79
2022-10-13T17:25:21.719Z,101748.38
2022-10-13T17:29:20.271Z,101747.50
2022-10-13T17:33:35.439Z,101745.02
2022-10-13T17:37:33.720Z,101741.48
2022-10-13T17:41:45.910Z,101734.92
2022-10-13T17:45:45.169Z,101730.86
2022-10-13T17:49:43.824Z,101732.94
2022-10-13T17:53:45.907Z,101730.11
2022-10-13T17:57:44.499Z,101730.79
2022-10-13T18:01:44.595Z,101736.77
2022-10-13T18:05:44.174Z,101736.95
2022-10-13T18:09:42.726Z,101740.14
2022-10-13T18:13:42.213Z,101737.33
2022-10-13T18:17:54.330Z,101737.68
2022-10-13T18:21:53.382Z,101730.30
2022-10-13T18:25:52.289Z,101724.65
2022-10-13T18:29:52.344Z,101718.66
2022-10-13T18:33:56.377Z,101720.76
2022-10-13T18:37:54.710Z,101719.70
2022-10-13T18:42:08.511Z,101716.50
2022-10-13T18:46:06.997Z,101709.80
2022-10-13T18:50:06.325Z,101707.84
2022-10-13T18:54:07.670Z,101709.04
2022-10-13T18:58:06.059Z,101704.61
2022-10-13T19:02:04.252Z,101710.20
2022-10-13T19:06:05.107Z,101708.23
2022-10-13T19:10:04.710Z,101707.32
2022-10-13T19:14:06.006Z,101709.74
2022-10-13T19:18:06.386Z,101707.80
2022-10-13T19:22:18.018Z,101705.52
2022-10-13T19:26:19.743Z,101703.23
2022-10-13T19:30:20.214Z,101700.60
2022-10-13T19:34:34.936Z,101699.34
2022-10-13T19:38:33.568Z,101695.48
2022-10-13T19:42:32.766Z,101694.92
2022-10-13T19:50:47.275Z,101692.64
2022-10-13T19:54:46.694Z,101692.46
2022-10-13T19:58:45.482Z,101687.36
2022-10-13T20:02:43.571Z,101688.20
2022-10-13T20:06:42.073Z,101685.57
2022-10-13T20:10:54.258Z,101683.44
2022-10-13T20:15:06.643Z,101684.83
2022-10-13T20:19:06.815Z,101678.84
2022-10-13T20:23:18.802Z,101676.90
2022-10-13T20:27:17.079Z,101677.05
2022-10-13T20:31:29.698Z,101674.40
2022-10-13T20:35:27.914Z,101670.70
2022-10-13T20:39:26.690Z,101665.95
2022-10-13T20:43:25.977Z,101662.26
2022-10-13T20:47:24.592Z,101661.73
2022-10-13T20:51:24.544Z,101655.21
2022-10-13T20:55:23.633Z,101649.75
2022-10-13T20:59:22.398Z,101646.75
2022-10-13T21:03:22.956Z,101645.33
2022-10-13T21:07:21.459Z,101640.76
2022-10-13T21:11:21.819Z,101639.86
2022-10-13T21:15:20.760Z,101640.90
2022-10-13T21:19:21.294Z,101640.52
2022-10-13T21:23:20.032Z,101643.14
2022-10-13T21:27:32.300Z,101646.98
2022-10-13T21:31:30.945Z,101646.77
2022-10-13T21:35:29.322Z,101651.16
2022-10-13T21:39:41.076Z,101647.98
2022-10-13T21:43:39.202Z,101651.51
2022-10-13T21:47:38.150Z,101648.33
2022-10-13T21:51:50.470Z,101643.94
2022-10-13T21:55:49.315Z,101642.17
2022-10-13T21:59:48.158Z,101637.23
2022-10-13T22:03:47.467Z,101634.95
2022-10-13T22:07:48.870Z,101631.06
2022-10-13T22:11:47.569Z,101626.12
2022-10-13T22:16:12.738Z,101626.63
2022-10-13T22:20:16.396Z,101625.56
2022-10-13T22:24:18.259Z,101622.92
2022-10-13T22:28:36.090Z,101622.61
2022-10-13T22:32:35.348Z,101625.24
2022-10-13T22:36:33.760Z,101623.86
2022-10-13T22:40:48.270Z,101621.42
2022-10-13T22:44:24.030Z,101616.69
2022-10-13T22:48:40.587Z,101618.12
2022-10-13T22:52:40.951Z,101611.63
2022-10-13T22:56:53.179Z,101612.51
2022-10-13T23:00:51.101Z,101607.61
2022-10-13T23:09:29.430Z,101608.11
2022-10-13T23:13:41.717Z,101606.88
2022-10-13T23:17:53.965Z,101600.73
2022-10-13T23:21:52.298Z,101594.77
2022-10-13T23:25:50.705Z,101592.66
2022-10-13T23:29:49.301Z,101587.05
2022-10-13T23:33:48.016Z,101581.60
2022-10-13T23:37:46.478Z,101586.52
2022-10-13T23:41:44.801Z,101584.42
2022-10-13T23:45:45.431Z,101579.34
2022-10-13T23:49:45.126Z,101579.70
2022-10-13T23:53:43.693Z,101574.24
2022-10-13T23:57:42.664Z,101570.89
